WZZ2DM LHBP-LRTM
Flight info
| Callsign | WZZ2DM |
|---|---|
| Flight time | 0h 44m |
| Altitude | 33000 |
| Route | VETIK DCT UVERA DCT RILAS DCT LARMU |
| Aircraft | A321/M-SDE1E2E3FGIJ1J4RWXY/LB1 |
Departure
| Time | 2026-04-15 14:53 |
|---|---|
| Airport | Budapest Liszt Ferenc International Airport (LHBP) |
Arrival
| Time | 2026-04-15 15:38 |
|---|---|
| Airport | Târgu Mureş Transilvania International Airport (LRTM) |
| Time | Latitude | Longitude | Altitude | Speed | Heading |
|---|---|---|---|---|---|
| 2026-04-15 14:36 | 47.43396 | 19.26659 | 456 ft | 0 kts | 222° |
| 2026-04-15 14:42 | 47.43402 | 19.26666 | 457 ft | 2 kts | 222° |
| 2026-04-15 14:42 | 47.43416 | 19.26686 | 454 ft | 3 kts | 222° |
| 2026-04-15 14:43 | 47.43429 | 19.26702 | 456 ft | 2 kts | 225° |
| 2026-04-15 14:43 | 47.43438 | 19.26720 | 453 ft | 3 kts | 279° |
| 2026-04-15 14:43 | 47.43430 | 19.26739 | 453 ft | 3 kts | 323° |
| 2026-04-15 14:43 | 47.43426 | 19.26743 | 454 ft | 3 kts | 324° |
| 2026-04-15 14:44 | 47.43411 | 19.26760 | 457 ft | 2 kts | 315° |
| 2026-04-15 14:44 | 47.43408 | 19.26764 | 456 ft | 0 kts | 312° |
| 2026-04-15 14:46 | 47.43415 | 19.26753 | 457 ft | 3 kts | 312° |
| 2026-04-15 14:46 | 47.43434 | 19.26723 | 454 ft | 5 kts | 312° |
| 2026-04-15 14:47 | 47.43459 | 19.26681 | 458 ft | 6 kts | 312° |
| 2026-04-15 14:47 | 47.43492 | 19.26630 | 458 ft | 8 kts | 312° |
| 2026-04-15 14:47 | 47.43533 | 19.26562 | 458 ft | 9 kts | 313° |
| 2026-04-15 14:47 | 47.43581 | 19.26489 | 458 ft | 11 kts | 314° |
| 2026-04-15 14:48 | 47.43635 | 19.26407 | 458 ft | 12 kts | 314° |
| 2026-04-15 14:48 | 47.43678 | 19.26304 | 457 ft | 12 kts | 285° |
| 2026-04-15 14:48 | 47.43678 | 19.26174 | 457 ft | 13 kts | 266° |
| 2026-04-15 14:48 | 47.43693 | 19.26041 | 455 ft | 13 kts | 300° |
| 2026-04-15 14:49 | 47.43733 | 19.25922 | 457 ft | 13 kts | 257° |
| 2026-04-15 14:49 | 47.43668 | 19.25821 | 457 ft | 14 kts | 220° |
| 2026-04-15 14:49 | 47.43593 | 19.25721 | 457 ft | 15 kts | 222° |
| 2026-04-15 14:49 | 47.43514 | 19.25615 | 457 ft | 16 kts | 222° |
| 2026-04-15 14:50 | 47.43431 | 19.25503 | 457 ft | 17 kts | 222° |
| 2026-04-15 14:50 | 47.43340 | 19.25380 | 457 ft | 18 kts | 222° |
| 2026-04-15 14:50 | 47.43243 | 19.25252 | 457 ft | 19 kts | 222° |
| 2026-04-15 14:50 | 47.43154 | 19.25134 | 456 ft | 5 kts | 221° |
| 2026-04-15 14:51 | 47.43126 | 19.25097 | 457 ft | 6 kts | 221° |
| 2026-04-15 14:51 | 47.43091 | 19.25051 | 457 ft | 8 kts | 221° |
| 2026-04-15 14:51 | 47.43077 | 19.24985 | 457 ft | 7 kts | 303° |
| 2026-04-15 14:51 | 47.43102 | 19.24938 | 457 ft | 0 kts | 314° |
| 2026-04-15 14:52 | 47.43103 | 19.24938 | 457 ft | 0 kts | 314° |
| 2026-04-15 14:52 | 47.43109 | 19.24927 | 457 ft | 7 kts | 314° |
| 2026-04-15 14:52 | 47.43268 | 19.24674 | 454 ft | 70 kts | 312° |
| 2026-04-15 14:52 | 47.43759 | 19.23880 | 455 ft | 136 kts | 313° |
| 2026-04-15 14:53 | 47.44516 | 19.22666 | 542 ft | 178 kts | 313° |
| 2026-04-15 14:53 | 47.45404 | 19.21242 | 1079 ft | 191 kts | 313° |
| 2026-04-15 14:53 | 47.46320 | 19.19776 | 1692 ft | 202 kts | 313° |
| 2026-04-15 14:53 | 47.47290 | 19.18258 | 2349 ft | 203 kts | 314° |
| 2026-04-15 14:54 | 47.48298 | 19.16741 | 2770 ft | 216 kts | 317° |
| 2026-04-15 14:54 | 47.49562 | 19.15276 | 2857 ft | 248 kts | 327° |
| 2026-04-15 14:54 | 47.51215 | 19.14382 | 3435 ft | 258 kts | 356° |
| 2026-04-15 14:54 | 47.52429 | 19.14476 | 3962 ft | 262 kts | 8° |
| 2026-04-15 14:55 | 47.54228 | 19.15084 | 4716 ft | 268 kts | 18° |
| 2026-04-15 14:55 | 47.55956 | 19.16169 | 5503 ft | 271 kts | 32° |
| 2026-04-15 14:55 | 47.57376 | 19.17988 | 6329 ft | 273 kts | 52° |
| 2026-04-15 14:55 | 47.58260 | 19.20495 | 6977 ft | 280 kts | 75° |
| 2026-04-15 14:56 | 47.58411 | 19.23367 | 7697 ft | 282 kts | 95° |
| 2026-04-15 14:56 | 47.58247 | 19.26276 | 8448 ft | 285 kts | 95° |
| 2026-04-15 14:56 | 47.58072 | 19.29222 | 9176 ft | 289 kts | 95° |
| 2026-04-15 14:56 | 47.57890 | 19.32208 | 9930 ft | 293 kts | 95° |
| 2026-04-15 14:57 | 47.57701 | 19.35270 | 10359 ft | 309 kts | 95° |
| 2026-04-15 14:57 | 47.57497 | 19.38550 | 10530 ft | 332 kts | 95° |
| 2026-04-15 14:57 | 47.57278 | 19.42030 | 10907 ft | 344 kts | 95° |
| 2026-04-15 14:57 | 47.57054 | 19.45586 | 11556 ft | 349 kts | 95° |
| 2026-04-15 14:58 | 47.56828 | 19.49183 | 12213 ft | 353 kts | 95° |
| 2026-04-15 14:58 | 47.56599 | 19.52819 | 12875 ft | 356 kts | 95° |
| 2026-04-15 14:58 | 47.56368 | 19.56488 | 13550 ft | 360 kts | 95° |
| 2026-04-15 14:58 | 47.56132 | 19.60195 | 14179 ft | 364 kts | 95° |
| 2026-04-15 14:59 | 47.55891 | 19.63948 | 14742 ft | 368 kts | 95° |
| 2026-04-15 14:59 | 47.55646 | 19.67741 | 15317 ft | 372 kts | 95° |
| 2026-04-15 14:59 | 47.55395 | 19.71579 | 15894 ft | 376 kts | 95° |
| 2026-04-15 14:59 | 47.55140 | 19.75457 | 16476 ft | 381 kts | 95° |
| 2026-04-15 15:00 | 47.54882 | 19.79378 | 17041 ft | 385 kts | 95° |
| 2026-04-15 15:00 | 47.54623 | 19.83346 | 17605 ft | 389 kts | 95° |
| 2026-04-15 15:00 | 47.54362 | 19.87347 | 18165 ft | 393 kts | 95° |
| 2026-04-15 15:00 | 47.54096 | 19.91400 | 18691 ft | 397 kts | 95° |
| 2026-04-15 15:01 | 47.53823 | 19.95489 | 19183 ft | 401 kts | 95° |
| 2026-04-15 15:01 | 47.53545 | 19.99612 | 19689 ft | 405 kts | 95° |
| 2026-04-15 15:01 | 47.53265 | 20.03775 | 20203 ft | 408 kts | 95° |
| 2026-04-15 15:01 | 47.52984 | 20.07971 | 20711 ft | 412 kts | 95° |
| 2026-04-15 15:02 | 47.52698 | 20.12201 | 21206 ft | 415 kts | 95° |
| 2026-04-15 15:02 | 47.52403 | 20.16471 | 21714 ft | 419 kts | 96° |
| 2026-04-15 15:02 | 47.52104 | 20.20774 | 22214 ft | 422 kts | 96° |
| 2026-04-15 15:02 | 47.51800 | 20.25115 | 22705 ft | 426 kts | 96° |
| 2026-04-15 15:03 | 47.51493 | 20.29484 | 23180 ft | 429 kts | 96° |
| 2026-04-15 15:03 | 47.51181 | 20.33894 | 23643 ft | 432 kts | 96° |
| 2026-04-15 15:03 | 47.50866 | 20.38330 | 24037 ft | 436 kts | 96° |
| 2026-04-15 15:03 | 47.50549 | 20.42801 | 24420 ft | 439 kts | 96° |
| 2026-04-15 15:04 | 47.50230 | 20.47301 | 24804 ft | 441 kts | 96° |
| 2026-04-15 15:04 | 47.49906 | 20.51826 | 25183 ft | 444 kts | 96° |
| 2026-04-15 15:04 | 47.49576 | 20.56383 | 25557 ft | 447 kts | 96° |
| 2026-04-15 15:04 | 47.49241 | 20.60968 | 25928 ft | 450 kts | 96° |
| 2026-04-15 15:05 | 47.48906 | 20.65578 | 26291 ft | 453 kts | 96° |
| 2026-04-15 15:05 | 47.48574 | 20.70159 | 26646 ft | 455 kts | 96° |
| 2026-04-15 15:05 | 47.48230 | 20.74887 | 27009 ft | 458 kts | 96° |
| 2026-04-15 15:05 | 47.47888 | 20.79515 | 27354 ft | 461 kts | 96° |
| 2026-04-15 15:06 | 47.47169 | 20.89049 | 28057 ft | 466 kts | 96° |
| 2026-04-15 15:06 | 47.46810 | 20.93762 | 28400 ft | 469 kts | 96° |
| 2026-04-15 15:06 | 47.46444 | 20.98565 | 28732 ft | 472 kts | 96° |
| 2026-04-15 15:07 | 47.46076 | 21.03395 | 29073 ft | 474 kts | 96° |
| 2026-04-15 15:07 | 47.45704 | 21.08248 | 29398 ft | 477 kts | 97° |
| 2026-04-15 15:07 | 47.45327 | 21.13131 | 29713 ft | 479 kts | 97° |
| 2026-04-15 15:07 | 47.44941 | 21.18101 | 30029 ft | 482 kts | 97° |
| 2026-04-15 15:08 | 47.44555 | 21.23034 | 30339 ft | 485 kts | 97° |
| 2026-04-15 15:08 | 47.44170 | 21.27923 | 30624 ft | 487 kts | 97° |
| 2026-04-15 15:08 | 47.43777 | 21.32902 | 30873 ft | 490 kts | 97° |
| 2026-04-15 15:08 | 47.43379 | 21.37909 | 31170 ft | 491 kts | 97° |
| 2026-04-15 15:09 | 47.42981 | 21.42913 | 31582 ft | 490 kts | 97° |
| 2026-04-15 15:09 | 47.42582 | 21.47903 | 31982 ft | 489 kts | 97° |
| 2026-04-15 15:09 | 47.42180 | 21.52883 | 32386 ft | 488 kts | 97° |
| 2026-04-15 15:09 | 47.41778 | 21.57847 | 32798 ft | 487 kts | 97° |
| 2026-04-15 15:10 | 47.41373 | 21.62805 | 33103 ft | 487 kts | 97° |
| 2026-04-15 15:10 | 47.40967 | 21.67736 | 33166 ft | 479 kts | 97° |
| 2026-04-15 15:10 | 47.40166 | 21.77423 | 33163 ft | 474 kts | 97° |
| 2026-04-15 15:11 | 47.39361 | 21.87059 | 33158 ft | 473 kts | 97° |
| 2026-04-15 15:11 | 47.38545 | 21.96687 | 33160 ft | 472 kts | 97° |
| 2026-04-15 15:12 | 47.37728 | 22.06293 | 33153 ft | 472 kts | 97° |
| 2026-04-15 15:12 | 47.36902 | 22.15900 | 33147 ft | 472 kts | 97° |
| 2026-04-15 15:13 | 47.36054 | 22.25514 | 33148 ft | 473 kts | 98° |
| 2026-04-15 15:13 | 47.35203 | 22.35139 | 33153 ft | 473 kts | 98° |
| 2026-04-15 15:14 | 47.34355 | 22.44772 | 33156 ft | 474 kts | 98° |
| 2026-04-15 15:14 | 47.32916 | 22.54183 | 33156 ft | 470 kts | 117° |
| 2026-04-15 15:15 | 47.29805 | 22.62633 | 33155 ft | 469 kts | 121° |
| 2026-04-15 15:15 | 47.26612 | 22.71025 | 33154 ft | 470 kts | 121° |
| 2026-04-15 15:16 | 47.23397 | 22.79409 | 33160 ft | 470 kts | 121° |
| 2026-04-15 15:16 | 47.20188 | 22.87800 | 33162 ft | 471 kts | 121° |
| 2026-04-15 15:17 | 47.16985 | 22.96199 | 33143 ft | 471 kts | 121° |
| 2026-04-15 15:17 | 47.13769 | 23.04597 | 33148 ft | 472 kts | 121° |
| 2026-04-15 15:18 | 47.12152 | 23.08801 | 33045 ft | 475 kts | 121° |
| 2026-04-15 15:18 | 47.10512 | 23.13057 | 32114 ft | 483 kts | 121° |
| 2026-04-15 15:18 | 47.08771 | 23.17251 | 31361 ft | 482 kts | 130° |
| 2026-04-15 15:18 | 47.06480 | 23.20681 | 30854 ft | 472 kts | 144° |
| 2026-04-15 15:19 | 47.03975 | 23.23713 | 30559 ft | 463 kts | 143° |
| 2026-04-15 15:19 | 47.01504 | 23.26749 | 29781 ft | 465 kts | 143° |
| 2026-04-15 15:19 | 46.99031 | 23.29813 | 28968 ft | 466 kts | 142° |
| 2026-04-15 15:19 | 46.96556 | 23.32883 | 28189 ft | 467 kts | 142° |
| 2026-04-15 15:20 | 46.94076 | 23.35950 | 27400 ft | 467 kts | 142° |
| 2026-04-15 15:20 | 46.91594 | 23.39004 | 26646 ft | 466 kts | 142° |
| 2026-04-15 15:20 | 46.89138 | 23.42013 | 25928 ft | 465 kts | 142° |
| 2026-04-15 15:20 | 46.86656 | 23.45041 | 25210 ft | 464 kts | 142° |
| 2026-04-15 15:21 | 46.84178 | 23.48054 | 24495 ft | 463 kts | 142° |
| 2026-04-15 15:21 | 46.81706 | 23.51053 | 23821 ft | 461 kts | 142° |
| 2026-04-15 15:21 | 46.79242 | 23.54038 | 23043 ft | 459 kts | 142° |
| 2026-04-15 15:21 | 46.76792 | 23.57005 | 22259 ft | 456 kts | 142° |
| 2026-04-15 15:22 | 46.74357 | 23.59953 | 21503 ft | 453 kts | 142° |
| 2026-04-15 15:22 | 46.71940 | 23.62875 | 20767 ft | 450 kts | 142° |
| 2026-04-15 15:22 | 46.69541 | 23.65773 | 20039 ft | 446 kts | 142° |
| 2026-04-15 15:22 | 46.67162 | 23.68648 | 19333 ft | 442 kts | 142° |
| 2026-04-15 15:23 | 46.64806 | 23.71494 | 18644 ft | 438 kts | 142° |
| 2026-04-15 15:23 | 46.62474 | 23.74315 | 17895 ft | 434 kts | 142° |
| 2026-04-15 15:23 | 46.60160 | 23.77107 | 17063 ft | 431 kts | 142° |
| 2026-04-15 15:23 | 46.57855 | 23.79884 | 16233 ft | 430 kts | 142° |
| 2026-04-15 15:24 | 46.55556 | 23.82646 | 15436 ft | 428 kts | 142° |
| 2026-04-15 15:24 | 46.53264 | 23.85395 | 14648 ft | 426 kts | 142° |
| 2026-04-15 15:24 | 46.50985 | 23.88124 | 13869 ft | 424 kts | 142° |
| 2026-04-15 15:24 | 46.48710 | 23.90846 | 13025 ft | 423 kts | 142° |
| 2026-04-15 15:25 | 46.46452 | 23.93542 | 12326 ft | 418 kts | 142° |
| 2026-04-15 15:25 | 46.44217 | 23.96204 | 11679 ft | 413 kts | 142° |
| 2026-04-15 15:25 | 46.42024 | 23.98817 | 11360 ft | 400 kts | 142° |
| 2026-04-15 15:25 | 46.39952 | 24.01355 | 11228 ft | 381 kts | 137° |
| 2026-04-15 15:26 | 46.38294 | 24.04232 | 11106 ft | 365 kts | 124° |
| 2026-04-15 15:26 | 46.37004 | 24.07296 | 10978 ft | 348 kts | 122° |
| 2026-04-15 15:26 | 46.35776 | 24.10228 | 10849 ft | 334 kts | 122° |
| 2026-04-15 15:26 | 46.34593 | 24.13037 | 10725 ft | 321 kts | 122° |
| 2026-04-15 15:27 | 46.33527 | 24.15819 | 10513 ft | 313 kts | 114° |
| 2026-04-15 15:27 | 46.32912 | 24.18817 | 10226 ft | 310 kts | 100° |
| 2026-04-15 15:27 | 46.32799 | 24.21912 | 9929 ft | 307 kts | 86° |
| 2026-04-15 15:27 | 46.33172 | 24.24929 | 9607 ft | 303 kts | 74° |
| 2026-04-15 15:28 | 46.33762 | 24.27834 | 9274 ft | 299 kts | 74° |
| 2026-04-15 15:28 | 46.34333 | 24.30707 | 8979 ft | 295 kts | 75° |
| 2026-04-15 15:28 | 46.34889 | 24.33543 | 8668 ft | 291 kts | 75° |
| 2026-04-15 15:28 | 46.35437 | 24.36355 | 8362 ft | 289 kts | 75° |
| 2026-04-15 15:29 | 46.35983 | 24.39149 | 8064 ft | 288 kts | 75° |
| 2026-04-15 15:29 | 46.36525 | 24.41924 | 7759 ft | 286 kts | 75° |
| 2026-04-15 15:29 | 46.37065 | 24.44691 | 7461 ft | 285 kts | 75° |
| 2026-04-15 15:29 | 46.37603 | 24.47448 | 7182 ft | 283 kts | 75° |
| 2026-04-15 15:30 | 46.38137 | 24.50193 | 6941 ft | 283 kts | 74° |
| 2026-04-15 15:30 | 46.38668 | 24.52923 | 6703 ft | 282 kts | 75° |
| 2026-04-15 15:30 | 46.39197 | 24.55645 | 6454 ft | 279 kts | 75° |
| 2026-04-15 15:30 | 46.39719 | 24.58340 | 6204 ft | 277 kts | 75° |
| 2026-04-15 15:31 | 46.40236 | 24.61019 | 5951 ft | 276 kts | 75° |
| 2026-04-15 15:31 | 46.40752 | 24.63691 | 5729 ft | 272 kts | 75° |
| 2026-04-15 15:31 | 46.41267 | 24.66347 | 5432 ft | 276 kts | 75° |
| 2026-04-15 15:31 | 46.41785 | 24.69018 | 5072 ft | 275 kts | 75° |
| 2026-04-15 15:32 | 46.42314 | 24.71679 | 4705 ft | 274 kts | 71° |
| 2026-04-15 15:32 | 46.43346 | 24.73946 | 4332 ft | 271 kts | 38° |
| 2026-04-15 15:32 | 46.45044 | 24.74994 | 3974 ft | 267 kts | 4° |
| 2026-04-15 15:32 | 46.46853 | 24.74620 | 3627 ft | 264 kts | 343° |
| 2026-04-15 15:33 | 46.48594 | 24.73889 | 3484 ft | 255 kts | 344° |
| 2026-04-15 15:33 | 46.50255 | 24.73206 | 3492 ft | 241 kts | 342° |
| 2026-04-15 15:33 | 46.51615 | 24.71999 | 3489 ft | 226 kts | 309° |
| 2026-04-15 15:33 | 46.52203 | 24.69924 | 3499 ft | 227 kts | 273° |
| 2026-04-15 15:34 | 46.51918 | 24.67666 | 3500 ft | 230 kts | 256° |
| 2026-04-15 15:34 | 46.51477 | 24.65424 | 3504 ft | 231 kts | 256° |
| 2026-04-15 15:34 | 46.51039 | 24.63186 | 3504 ft | 230 kts | 256° |
| 2026-04-15 15:34 | 46.50602 | 24.60947 | 3504 ft | 231 kts | 257° |
| 2026-04-15 15:35 | 46.50166 | 24.58706 | 3308 ft | 231 kts | 255° |
| 2026-04-15 15:35 | 46.49738 | 24.56511 | 2957 ft | 218 kts | 256° |
| 2026-04-15 15:35 | 46.49345 | 24.54502 | 2671 ft | 196 kts | 257° |
| 2026-04-15 15:35 | 46.48988 | 24.52678 | 2406 ft | 181 kts | 256° |
| 2026-04-15 15:36 | 46.48666 | 24.51040 | 2203 ft | 159 kts | 257° |
| 2026-04-15 15:36 | 46.48386 | 24.49539 | 1979 ft | 151 kts | 257° |
| 2026-04-15 15:36 | 46.48124 | 24.48084 | 1783 ft | 148 kts | 257° |
| 2026-04-15 15:36 | 46.47848 | 24.46659 | 1593 ft | 146 kts | 256° |
| 2026-04-15 15:37 | 46.47560 | 24.45257 | 1406 ft | 146 kts | 254° |
| 2026-04-15 15:37 | 46.47284 | 24.43850 | 1214 ft | 144 kts | 255° |
| 2026-04-15 15:37 | 46.47011 | 24.42447 | 1023 ft | 145 kts | 255° |
| 2026-04-15 15:37 | 46.46760 | 24.41157 | 970 ft | 108 kts | 254° |
| 2026-04-15 15:38 | 46.46657 | 24.40656 | 968 ft | 43 kts | 253° |
| 2026-04-15 15:38 | 46.46607 | 24.40381 | 977 ft | 6 kts | 205° |
| 2026-04-15 15:38 | 46.46601 | 24.40396 | 979 ft | 3 kts | 82° |
| 2026-04-15 15:38 | 46.46628 | 24.40533 | 982 ft | 25 kts | 73° |
| 2026-04-15 15:39 | 46.46689 | 24.40826 | 970 ft | 38 kts | 74° |
| 2026-04-15 15:39 | 46.46766 | 24.41224 | 967 ft | 41 kts | 74° |
| 2026-04-15 15:39 | 46.46821 | 24.41497 | 974 ft | 42 kts | 73° |
| 2026-04-15 15:39 | 46.46900 | 24.41884 | 980 ft | 39 kts | 73° |
| 2026-04-15 15:40 | 46.46975 | 24.42253 | 976 ft | 37 kts | 75° |
| 2026-04-15 15:40 | 46.47003 | 24.42455 | 973 ft | 12 kts | 100° |
| 2026-04-15 15:40 | 46.46933 | 24.42513 | 979 ft | 14 kts | 164° |
| 2026-04-15 15:40 | 46.46869 | 24.42473 | 975 ft | 11 kts | 245° |
| 2026-04-15 15:41 | 46.46828 | 24.42458 | 972 ft | 6 kts | 178° |
| 2026-04-15 15:41 | 46.46813 | 24.42446 | 976 ft | 1 kts | 235° |
| 2026-04-15 15:41 | 46.46814 | 24.42441 | 975 ft | 0 kts | 267° |
| 2026-04-15 15:41 | 46.46825 | 24.42426 | 983 ft | 0 kts | 326° |